Time;durP1;ratioP1;P1;durP2;ratioP2;P2;SDS_P1;SDS_P2;PMS_P1;PMS_P2;Temp;Humidity;BMP_temperature;BMP_pressure;BME280_temperature;BME280_humidity;BME280_pressure;Samples;Min_cycle;Max_cycle;Signal;HPM_P1;HPM_P2
2022/03/31 00:00:21;;;;;;;4.30;2.30;;;3.10;99.90;;;;;;4992529;28;20203;-71
2022/03/31 00:02:47;;;;;;;3.03;2.70;;;3.10;99.90;;;;;;5005562;28;20399;-71
2022/03/31 00:05:13;;;;;;;2.70;2.50;;;3.10;99.90;;;;;;5010934;28;20415;-70
2022/03/31 00:07:56;;;;;;;2.10;1.90;;;3.10;99.90;;;;;;5011692;28;20407;-71
2022/03/31 00:10:28;;;;;;;2.63;2.43;;;3.00;99.90;;;;;;5011978;28;20203;-71
2022/03/31 00:12:55;;;;;;;2.80;2.60;;;3.00;99.90;;;;;;5011891;28;20550;-71
2022/03/31 00:15:22;;;;;;;6.50;2.90;;;2.90;99.90;;;;;;5011804;28;20898;-70
2022/03/31 00:17:49;;;;;;;4.73;4.33;;;2.90;99.90;;;;;;5011870;28;20440;-71
2022/03/31 00:20:14;;;;;;;3.80;2.40;;;2.90;99.90;;;;;;5010440;28;20466;-71
2022/03/31 00:22:41;;;;;;;2.67;2.07;;;2.80;99.90;;;;;;5011920;28;20407;-70
2022/03/31 00:25:08;;;;;;;2.70;2.10;;;2.80;99.90;;;;;;5012008;28;20502;-71
2022/03/31 00:27:37;;;;;;;2.87;2.67;;;2.80;99.90;;;;;;5011971;28;20510;-70
2022/03/31 00:30:05;;;;;;;2.53;2.33;;;2.80;99.90;;;;;;5011697;28;20438;-71
2022/03/31 00:32:31;;;;;;;3.60;3.10;;;2.70;99.90;;;;;;5010520;28;20399;-70
2022/03/31 00:34:56;;;;;;;2.30;2.20;;;2.70;99.90;;;;;;5011915;28;20443;-70
2022/03/31 00:37:22;;;;;;;2.50;1.80;;;2.70;99.90;;;;;;5011745;28;20860;-70
2022/03/31 00:39:48;;;;;;;2.10;1.73;;;2.60;99.90;;;;;;5011547;28;20264;-70
2022/03/31 00:42:15;;;;;;;1.93;1.83;;;2.60;99.90;;;;;;5011822;28;20168;-70
2022/03/31 00:44:41;;;;;;;3.57;3.37;;;2.60;99.90;;;;;;5011535;28;20446;-70
2022/03/31 00:47:07;;;;;;;2.60;2.40;;;2.50;99.90;;;;;;5011743;28;20439;-70
2022/03/31 00:49:34;;;;;;;3.43;2.50;;;2.50;99.90;;;;;;5011579;28;20744;-70
2022/03/31 00:51:59;;;;;;;1.90;1.80;;;2.50;99.90;;;;;;5011688;28;20418;-70
2022/03/31 00:54:26;;;;;;;2.23;2.00;;;2.50;99.90;;;;;;5011693;28;20411;-70
2022/03/31 00:56:52;;;;;;;11.00;2.37;;;2.40;99.90;;;;;;5011698;28;20252;-70
2022/03/31 00:59:18;;;;;;;2.87;2.67;;;2.40;99.90;;;;;;5011406;28;20434;-70
2022/03/31 01:01:45;;;;;;;2.70;2.50;;;2.30;99.90;;;;;;5011495;28;20408;-70
2022/03/31 01:04:11;;;;;;;3.07;2.43;;;2.30;99.90;;;;;;5011467;28;20411;-71
2022/03/31 01:06:36;;;;;;;2.00;1.80;;;2.30;99.90;;;;;;5011414;28;20404;-70
2022/03/31 01:09:04;;;;;;;3.33;1.97;;;2.30;99.90;;;;;;5011441;28;20438;-69
2022/03/31 01:11:30;;;;;;;1.90;1.80;;;2.20;99.90;;;;;;5011168;28;20541;-70
2022/03/31 01:13:56;;;;;;;5.63;3.90;;;2.20;99.90;;;;;;5007610;28;20777;-70
2022/03/31 01:16:22;;;;;;;2.40;1.73;;;2.20;99.90;;;;;;5009985;28;20925;-69
2022/03/31 01:18:50;;;;;;;4.80;2.73;;;2.10;99.90;;;;;;5012708;28;20470;-70
2022/03/31 01:21:16;;;;;;;4.83;2.27;;;2.10;99.90;;;;;;5014969;28;20494;-69
2022/03/31 01:23:43;;;;;;;3.57;1.80;;;2.10;99.90;;;;;;5014803;28;20447;-70
2022/03/31 01:26:10;;;;;;;2.10;1.80;;;2.00;99.90;;;;;;5014756;28;20180;-70
2022/03/31 01:28:40;;;;;;;1.83;1.73;;;2.00;99.90;;;;;;5015061;28;20407;-70
2022/03/31 01:31:05;;;;;;;3.37;3.17;;;2.00;99.90;;;;;;5000647;28;20420;-70
2022/03/31 01:33:31;;;;;;;6.40;2.23;;;2.00;99.90;;;;;;4995047;28;20503;-70
2022/03/31 01:35:56;;;;;;;3.00;2.80;;;1.90;99.90;;;;;;4995053;28;20279;-70
2022/03/31 01:38:22;;;;;;;2.20;2.03;;;1.90;99.90;;;;;;4995356;28;20185;-70
2022/03/31 01:40:47;;;;;;;3.63;2.20;;;1.90;99.90;;;;;;4994830;28;20749;-70
2022/03/31 01:43:13;;;;;;;2.63;2.30;;;1.90;99.90;;;;;;5019410;23;20165;-68
2022/03/31 01:45:39;;;;;;;6.60;3.40;;;1.90;99.90;;;;;;5014027;28;20192;-66
2022/03/31 01:48:05;;;;;;;1.83;1.73;;;1.80;99.90;;;;;;5014315;28;20469;-66
2022/03/31 01:50:31;;;;;;;2.37;2.17;;;1.80;99.90;;;;;;5014359;28;20178;-67
2022/03/31 01:52:56;;;;;;;2.30;1.87;;;1.80;99.90;;;;;;5014265;28;20191;-68
2022/03/31 01:55:21;;;;;;;2.40;2.20;;;1.80;99.90;;;;;;5014295;28;20184;-66
2022/03/31 01:57:47;;;;;;;4.93;1.90;;;1.70;99.90;;;;;;5014298;28;20165;-66
2022/03/31 02:00:13;;;;;;;2.07;1.87;;;1.70;99.90;;;;;;5014071;28;20231;-67
2022/03/31 02:02:39;;;;;;;3.07;2.63;;;1.70;99.90;;;;;;5014072;28;20415;-68
2022/03/31 02:05:06;;;;;;;1.50;1.40;;;1.70;99.90;;;;;;5013894;28;20180;-66
2022/03/31 02:07:32;;;;;;;1.77;1.67;;;1.60;99.90;;;;;;5014298;28;20477;-66
2022/03/31 02:09:58;;;;;;;2.53;2.33;;;1.60;99.90;;;;;;5014304;28;20902;-66
2022/03/31 02:12:23;;;;;;;2.43;2.23;;;1.60;99.90;;;;;;5013970;28;20411;-68
2022/03/31 02:14:49;;;;;;;2.23;2.03;;;1.50;99.90;;;;;;5014020;28;20200;-67
2022/03/31 02:17:15;;;;;;;1.97;1.87;;;1.50;99.90;;;;;;5013924;28;20518;-67
2022/03/31 02:19:41;;;;;;;2.90;2.60;;;1.50;99.90;;;;;;5013852;28;20710;-67
2022/03/31 02:22:08;;;;;;;2.53;2.33;;;1.40;99.90;;;;;;5013920;28;20175;-68
2022/03/31 02:24:37;;;;;;;2.57;1.93;;;1.40;99.90;;;;;;5014127;28;20427;-68
2022/03/31 02:27:05;;;;;;;2.20;1.70;;;1.40;99.90;;;;;;5013979;28;20415;-68
2022/03/31 02:29:30;;;;;;;3.90;2.17;;;1.40;99.90;;;;;;5013581;28;20487;-68
2022/03/31 02:31:56;;;;;;;1.60;1.50;;;1.30;99.90;;;;;;5013522;28;20936;-68
2022/03/31 02:34:22;;;;;;;1.77;1.67;;;1.30;99.90;;;;;;5014010;28;20203;-67
2022/03/31 02:36:48;;;;;;;4.40;1.70;;;1.30;99.90;;;;;;5013588;28;20418;-68
2022/03/31 02:39:14;;;;;;;4.23;1.93;;;1.20;99.90;;;;;;5013972;28;20639;-68
2022/03/31 02:41:40;;;;;;;3.00;2.20;;;1.20;99.90;;;;;;5013404;28;20762;-68
2022/03/31 02:44:07;;;;;;;1.60;1.50;;;1.20;99.90;;;;;;4999940;28;20292;-66
2022/03/31 02:46:33;;;;;;;1.90;1.20;;;1.20;99.90;;;;;;4996404;28;20419;-68
2022/03/31 02:48:59;;;;;;;1.63;1.53;;;1.10;99.90;;;;;;5006461;28;20400;-66
2022/03/31 02:51:25;;;;;;;1.90;1.47;;;1.10;99.90;;;;;;4993470;28;20426;-66
2022/03/31 02:56:36;;;;;;;3.83;3.10;;;1.10;99.90;;;;;;4993854;28;20403;-66
2022/03/31 02:59:04;;;;;;;1.90;1.80;;;1.00;99.90;;;;;;4993494;28;20455;-66
2022/03/31 03:01:29;;;;;;;2.70;2.33;;;1.00;99.90;;;;;;4995970;28;20467;-66
2022/03/31 03:03:56;;;;;;;1.57;1.47;;;1.00;99.90;;;;;;5013137;28;20427;-67
2022/03/31 03:06:21;;;;;;;2.17;1.97;;;1.00;99.90;;;;;;5012932;28;20176;-66
2022/03/31 03:08:47;;;;;;;1.63;1.50;;;1.00;99.90;;;;;;5012981;28;20418;-66
2022/03/31 03:11:12;;;;;;;3.17;2.53;;;0.90;99.90;;;;;;5012978;28;20579;-66
2022/03/31 03:13:38;;;;;;;2.00;1.80;;;0.90;99.90;;;;;;5012501;28;20290;-66
2022/03/31 03:16:08;;;;;;;1.97;1.87;;;0.90;99.90;;;;;;5012759;28;20176;-66
2022/03/31 03:18:38;;;;;;;2.90;2.50;;;0.90;99.90;;;;;;5012818;28;20168;-66
2022/03/31 03:21:06;;;;;;;2.77;1.93;;;0.80;99.90;;;;;;5012618;28;20454;-68
2022/03/31 03:23:32;;;;;;;5.10;3.57;;;0.80;99.90;;;;;;5012691;28;20426;-68
2022/03/31 03:25:58;;;;;;;2.80;2.60;;;0.80;99.90;;;;;;5012611;28;20878;-66
2022/03/31 03:28:24;;;;;;;2.40;2.20;;;0.70;99.90;;;;;;5012486;28;20410;-68
2022/03/31 03:30:49;;;;;;;1.43;1.33;;;0.70;99.90;;;;;;5012653;28;20172;-66
2022/03/31 03:33:15;;;;;;;2.03;1.93;;;0.70;99.90;;;;;;5012631;28;20203;-66
2022/03/31 03:35:41;;;;;;;1.40;1.20;;;0.70;99.90;;;;;;5012352;28;20172;-68
2022/03/31 03:38:07;;;;;;;1.03;1.00;;;0.60;99.90;;;;;;5012766;28;20168;-66
2022/03/31 03:40:33;;;;;;;2.40;2.13;;;0.60;99.90;;;;;;5012299;28;20975;-67
2022/03/31 03:42:58;;;;;;;4.50;3.70;;;0.60;99.90;;;;;;5012051;28;20399;-66
2022/03/31 03:45:24;;;;;;;4.00;2.60;;;0.50;99.90;;;;;;5012448;28;20422;-66
2022/03/31 03:47:50;;;;;;;3.07;2.57;;;0.50;99.90;;;;;;5012672;28;20646;-67
2022/03/31 03:50:16;;;;;;;2.60;1.77;;;0.50;99.90;;;;;;5012621;28;20184;-66
2022/03/31 03:52:41;;;;;;;2.00;1.80;;;0.50;99.90;;;;;;5012528;28;20236;-67
2022/03/31 03:55:08;;;;;;;1.57;1.43;;;0.50;99.90;;;;;;5012417;28;20518;-67
2022/03/31 03:57:34;;;;;;;3.23;1.60;;;0.50;99.90;;;;;;5012693;28;20268;-66
2022/03/31 03:59:59;;;;;;;2.50;2.27;;;0.50;99.90;;;;;;5012575;28;20549;-67
2022/03/31 04:02:26;;;;;;;3.67;2.97;;;0.40;99.90;;;;;;5011999;28;20486;-67
2022/03/31 04:04:52;;;;;;;1.07;1.07;;;0.30;99.90;;;;;;5011956;28;20206;-66
2022/03/31 04:07:17;;;;;;;3.73;1.73;;;0.30;99.90;;;;;;5012027;28;20921;-66
2022/03/31 04:09:43;;;;;;;2.47;2.17;;;0.30;99.90;;;;;;5012041;28;20172;-67
2022/03/31 04:12:09;;;;;;;2.17;2.03;;;0.30;99.90;;;;;;5012087;28;20199;-67
2022/03/31 04:14:35;;;;;;;4.10;1.90;;;0.30;99.90;;;;;;5006292;28;20451;-67
2022/03/31 04:17:00;;;;;;;1.80;1.37;;;0.30;99.90;;;;;;5012005;28;20179;-67
2022/03/31 04:19:26;;;;;;;1.47;1.00;;;0.30;99.90;;;;;;5011972;28;20246;-67
2022/03/31 04:21:51;;;;;;;1.73;1.63;;;0.30;99.90;;;;;;5011791;28;20399;-67
2022/03/31 04:24:17;;;;;;;1.30;1.30;;;0.20;99.90;;;;;;5011673;28;20219;-67
2022/03/31 04:26:42;;;;;;;1.73;1.43;;;0.20;99.90;;;;;;5011682;28;20188;-67
2022/03/31 04:29:09;;;;;;;0.90;0.90;;;0.20;99.90;;;;;;5011937;28;20681;-66
2022/03/31 04:31:43;;;;;;;1.97;1.80;;;0.20;99.90;;;;;;5011903;28;20635;-67
2022/03/31 04:34:15;;;;;;;4.00;2.10;;;0.10;99.90;;;;;;5011664;28;20434;-67
2022/03/31 04:36:41;;;;;;;2.50;1.33;;;0.10;99.90;;;;;;5011571;28;20450;-67
2022/03/31 04:39:08;;;;;;;3.33;2.60;;;0.10;99.90;;;;;;5010600;28;20781;-67
2022/03/31 04:41:33;;;;;;;1.00;1.00;;;0.10;99.90;;;;;;5011525;28;20462;-67
2022/03/31 04:43:59;;;;;;;2.70;1.70;;;0.10;99.90;;;;;;5011700;28;20458;-66
2022/03/31 04:46:25;;;;;;;2.50;2.30;;;0.10;99.90;;;;;;5011811;28;20176;-67
2022/03/31 04:48:50;;;;;;;2.37;2.17;;;0.00;99.90;;;;;;5011813;28;20164;-67
2022/03/31 04:51:16;;;;;;;2.37;2.27;;;0.00;99.90;;;;;;5011716;28;20542;-69
2022/03/31 04:53:41;;;;;;;1.10;1.10;;;0.00;99.90;;;;;;5014630;28;20688;-67
2022/03/31 04:56:07;;;;;;;1.77;1.63;;;0.00;99.90;;;;;;5015572;28;20422;-68
2022/03/31 04:58:32;;;;;;;1.10;1.10;;;0.00;99.90;;;;;;5015630;28;20231;-67
2022/03/31 05:00:58;;;;;;;2.30;1.60;;;0.00;99.90;;;;;;5015469;28;20200;-67
2022/03/31 05:03:23;;;;;;;1.27;1.17;;;0.00;99.90;;;;;;5015505;28;20188;-67
2022/03/31 05:05:49;;;;;;;2.40;2.30;;;0.00;99.90;;;;;;5015155;28;20175;-67
2022/03/31 05:08:15;;;;;;;2.10;1.40;;;0.00;99.90;;;;;;5015508;28;20184;-67
2022/03/31 05:10:41;;;;;;;6.80;2.23;;;0.00;99.90;;;;;;5015293;28;20180;-69
2022/03/31 05:13:07;;;;;;;1.20;1.10;;;0.00;99.90;;;;;;5014426;28;20544;-67
2022/03/31 05:15:32;;;;;;;2.17;2.00;;;0.00;99.90;;;;;;5002749;28;20434;-67
2022/03/31 05:17:58;;;;;;;2.40;1.43;;;-0.10;99.90;;;;;;5015042;28;20255;-67
2022/03/31 05:20:23;;;;;;;1.00;1.00;;;0.00;99.90;;;;;;5004813;28;20200;-67
2022/03/31 05:22:49;;;;;;;2.00;1.90;;;0.00;99.90;;;;;;4995330;28;20173;-67
2022/03/31 05:25:15;;;;;;;4.10;1.10;;;0.00;99.90;;;;;;4995171;28;20545;-67
2022/03/31 05:27:45;;;;;;;4.80;1.13;;;0.10;99.90;;;;;;4995593;28;20682;-67
2022/03/31 05:30:13;;;;;;;1.50;1.40;;;0.10;99.90;;;;;;4995742;28;20400;-67
2022/03/31 05:32:38;;;;;;;1.60;1.50;;;0.10;99.90;;;;;;4998652;28;20777;-67
2022/03/31 05:35:08;;;;;;;1.53;1.43;;;0.10;99.90;;;;;;5014435;28;20422;-68
2022/03/31 05:37:34;;;;;;;1.73;1.63;;;0.20;99.90;;;;;;5015071;28;20179;-67
2022/03/31 05:40:04;;;;;;;2.90;2.80;;;0.20;99.90;;;;;;5014534;28;20940;-67
2022/03/31 05:42:30;;;;;;;1.47;1.37;;;0.20;99.90;;;;;;5014762;28;20779;-67
2022/03/31 05:44:55;;;;;;;1.17;1.13;;;0.20;99.90;;;;;;5014517;28;20449;-67
2022/03/31 05:47:21;;;;;;;1.90;1.80;;;0.20;99.90;;;;;;5014603;28;20411;-66
2022/03/31 05:49:46;;;;;;;1.73;1.63;;;0.30;99.90;;;;;;5014684;28;20222;-67
2022/03/31 05:52:11;;;;;;;3.30;1.50;;;0.40;99.90;;;;;;5014584;28;20279;-67
2022/03/31 05:54:37;;;;;;;3.37;3.03;;;0.40;99.90;;;;;;5014825;28;20203;-67
2022/03/31 05:57:02;;;;;;;2.57;2.47;;;0.40;99.90;;;;;;5014960;28;20176;-69
2022/03/31 05:59:28;;;;;;;1.47;1.20;;;0.40;99.90;;;;;;5014441;28;20184;-68
2022/03/31 06:01:53;;;;;;;2.07;1.97;;;0.60;99.90;;;;;;5014594;28;20172;-67
2022/03/31 06:04:21;;;;;;;1.30;1.20;;;0.80;99.90;;;;;;5013800;28;20215;-68
2022/03/31 06:06:48;;;;;;;3.77;2.30;;;0.70;99.90;;;;;;5014695;28;20169;-68
2022/03/31 06:09:14;;;;;;;1.27;1.17;;;0.90;99.90;;;;;;5014453;28;20420;-68
2022/03/31 06:11:40;;;;;;;1.70;1.47;;;1.10;99.90;;;;;;5014476;28;20403;-67
2022/03/31 06:14:06;;;;;;;1.90;1.70;;;1.10;99.90;;;;;;5014067;28;20419;-69
2022/03/31 06:16:31;;;;;;;1.90;1.53;;;1.10;99.90;;;;;;5014007;28;20908;-66
2022/03/31 06:18:57;;;;;;;1.73;1.30;;;1.20;99.90;;;;;;5013964;28;20172;-66
2022/03/31 06:21:22;;;;;;;1.90;1.80;;;1.30;99.90;;;;;;5014208;28;20200;-68
2022/03/31 06:23:48;;;;;;;2.50;2.30;;;1.40;99.90;;;;;;5014347;28;20531;-67
2022/03/31 06:26:14;;;;;;;2.50;2.23;;;1.20;99.90;;;;;;5014007;28;20168;-68
2022/03/31 06:28:39;;;;;;;2.63;1.47;;;1.10;99.90;;;;;;5014597;28;20482;-69
2022/03/31 06:31:05;;;;;;;2.07;1.87;;;1.20;99.90;;;;;;5014358;28;20172;-69
2022/03/31 06:33:30;;;;;;;2.23;2.00;;;1.40;99.90;;;;;;5014617;28;20185;-66
2022/03/31 06:35:56;;;;;;;1.40;1.30;;;1.70;99.90;;;;;;5015346;28;20173;-69
2022/03/31 06:38:21;;;;;;;2.60;1.77;;;1.60;99.90;;;;;;5015399;28;20631;-67
2022/03/31 06:41:06;;;;;;;2.70;2.60;;;1.70;99.90;;;;;;5014621;28;20200;-67
2022/03/31 06:43:32;;;;;;;4.87;2.90;;;2.10;99.90;;;;;;5013957;28;20211;-68
2022/03/31 06:45:57;;;;;;;3.30;1.80;;;2.50;99.90;;;;;;5005238;28;20450;-67
2022/03/31 06:48:23;;;;;;;1.90;1.80;;;2.60;99.90;;;;;;4993821;28;20883;-65
2022/03/31 06:50:48;;;;;;;3.27;3.00;;;2.60;99.50;;;;;;5013308;28;20215;-68
2022/03/31 06:53:14;;;;;;;2.93;1.83;;;2.60;99.40;;;;;;5013309;28;20263;-67
2022/03/31 06:55:39;;;;;;;2.20;2.07;;;2.60;99.50;;;;;;5024127;28;20178;-67
2022/03/31 06:58:05;;;;;;;3.83;3.07;;;2.60;99.60;;;;;;5022309;28;20184;-67
2022/03/31 07:00:30;;;;;;;2.13;1.97;;;2.80;99.30;;;;;;5013190;28;20203;-67
2022/03/31 07:02:56;;;;;;;2.03;1.80;;;3.00;98.60;;;;;;5011902;28;20259;-66
2022/03/31 07:05:21;;;;;;;1.60;1.50;;;3.20;97.80;;;;;;5011371;28;20197;-67
2022/03/31 07:07:47;;;;;;;3.20;2.27;;;3.50;97.80;;;;;;5009590;28;20184;-66
2022/03/31 07:10:13;;;;;;;3.73;2.40;;;3.30;97.90;;;;;;5013152;28;20771;-66
2022/03/31 07:12:39;;;;;;;1.90;1.40;;;3.20;97.40;;;;;;5005967;28;20542;-66
2022/03/31 07:15:05;;;;;;;1.60;1.50;;;3.30;97.50;;;;;;4993212;28;20436;-66
2022/03/31 07:17:40;;;;;;;5.27;2.67;;;3.40;97.10;;;;;;4992541;28;20180;-66
2022/03/31 07:20:17;;;;;;;6.33;2.43;;;3.30;97.70;;;;;;4993384;28;20451;-66
2022/03/31 07:22:50;;;;;;;8.67;3.60;;;3.50;97.20;;;;;;4996042;28;20913;-68
2022/03/31 07:25:21;;;;;;;5.63;2.80;;;4.00;96.40;;;;;;5012492;28;20435;-67
2022/03/31 07:27:51;;;;;;;2.43;2.30;;;4.30;95.50;;;;;;5005137;28;20761;-67
2022/03/31 07:30:21;;;;;;;4.50;2.17;;;4.00;94.80;;;;;;5012861;28;20403;-67
2022/03/31 07:32:48;;;;;;;4.97;2.30;;;4.00;95.40;;;;;;5012442;28;20474;-67
2022/03/31 07:35:21;;;;;;;3.50;3.13;;;3.80;95.20;;;;;;5012213;28;20446;-67
2022/03/31 07:37:55;;;;;;;2.40;1.80;;;4.00;95.30;;;;;;5012588;28;20439;-66
2022/03/31 07:40:25;;;;;;;3.23;2.00;;;4.20;95.10;;;;;;5012531;28;20454;-67
2022/03/31 07:42:54;;;;;;;2.63;1.93;;;4.00;95.00;;;;;;5011465;28;20805;-67
2022/03/31 07:45:22;;;;;;;2.27;1.80;;;4.10;94.90;;;;;;5012437;28;20980;-68
2022/03/31 07:47:52;;;;;;;3.70;1.60;;;3.90;94.60;;;;;;5013088;28;20403;-66
2022/03/31 07:50:21;;;;;;;2.60;1.77;;;3.70;94.80;;;;;;5012684;28;20514;-68
2022/03/31 07:52:54;;;;;;;3.30;2.30;;;3.90;94.70;;;;;;5012365;28;20456;-67
2022/03/31 07:55:19;;;;;;;1.83;1.60;;;4.10;94.40;;;;;;5012584;28;20480;-68
2022/03/31 07:57:46;;;;;;;2.37;2.17;;;4.70;94.20;;;;;;5013132;28;20423;-67
2022/03/31 08:00:18;;;;;;;2.37;1.40;;;4.40;93.50;;;;;;5028062;28;20531;-68
2022/03/31 08:02:47;;;;;;;3.27;2.23;;;4.40;93.50;;;;;;5012490;28;20771;-67
2022/03/31 08:05:22;;;;;;;1.53;1.43;;;4.60;93.30;;;;;;5011622;28;20415;-67
2022/03/31 08:07:48;;;;;;;2.37;2.10;;;5.00;93.90;;;;;;5012125;28;20391;-67
2022/03/31 08:10:15;;;;;;;6.10;1.60;;;5.20;92.30;;;;;;5011568;28;20411;-69
2022/03/31 08:12:45;;;;;;;2.10;1.70;;;4.90;92.20;;;;;;5011497;28;20411;-69
2022/03/31 08:15:16;;;;;;;2.13;1.60;;;4.90;92.40;;;;;;5011231;28;20431;-67
2022/03/31 08:17:50;;;;;;;3.20;1.97;;;5.20;92.10;;;;;;5011731;28;20411;-69
2022/03/31 08:20:29;;;;;;;2.50;2.17;;;5.50;91.70;;;;;;5011522;28;20454;-68
2022/03/31 08:22:57;;;;;;;2.50;1.97;;;5.40;91.50;;;;;;5011564;28;20403;-66
2022/03/31 08:25:25;;;;;;;3.10;1.97;;;5.60;91.10;;;;;;5011377;28;20419;-67
2022/03/31 08:27:51;;;;;;;1.30;1.20;;;5.70;90.70;;;;;;5011251;28;20407;-67
2022/03/31 08:30:24;;;;;;;3.10;1.67;;;5.60;90.50;;;;;;5011478;28;20473;-67
2022/03/31 08:32:52;;;;;;;1.73;1.63;;;6.10;90.40;;;;;;5011143;28;20302;-67
2022/03/31 08:35:19;;;;;;;1.97;1.80;;;6.20;89.10;;;;;;5010951;28;20972;-67
2022/03/31 08:37:48;;;;;;;2.43;2.23;;;6.30;89.20;;;;;;5011581;28;20939;-67
2022/03/31 08:40:19;;;;;;;2.20;2.10;;;6.40;88.60;;;;;;5011456;28;20450;-68
2022/03/31 08:42:46;;;;;;;4.30;2.83;;;6.40;88.20;;;;;;5008856;28;20411;-67
2022/03/31 08:45:15;;;;;;;4.30;2.43;;;6.50;88.00;;;;;;5010981;28;20455;-67
2022/03/31 08:47:44;;;;;;;2.20;1.77;;;6.30;88.10;;;;;;5011205;28;20419;-66
2022/03/31 08:50:15;;;;;;;1.83;1.73;;;6.70;88.00;;;;;;5011247;28;20411;-67
2022/03/31 08:52:42;;;;;;;2.30;2.10;;;6.80;86.40;;;;;;5011114;28;20441;-66
2022/03/31 08:55:12;;;;;;;3.20;2.50;;;6.80;86.70;;;;;;5010854;28;20949;-67
2022/03/31 08:57:44;;;;;;;2.50;1.43;;;6.90;85.80;;;;;;5011006;28;20454;-66
2022/03/31 09:00:16;;;;;;;2.87;1.80;;;7.10;86.00;;;;;;5020401;28;20452;-67
2022/03/31 09:02:53;;;;;;;2.90;1.77;;;7.30;85.00;;;;;;5010921;28;20398;-68
2022/03/31 09:05:19;;;;;;;3.87;2.43;;;7.30;83.50;;;;;;5011005;28;20926;-67
2022/03/31 09:08:00;;;;;;;2.67;2.47;;;7.30;83.70;;;;;;5010321;28;20942;-66
2022/03/31 09:10:32;;;;;;;1.77;1.60;;;7.60;83.90;;;;;;5010663;28;20901;-66
2022/03/31 09:13:00;;;;;;;2.17;1.97;;;7.70;82.40;;;;;;5010852;28;20430;-66
2022/03/31 09:15:26;;;;;;;2.83;1.73;;;7.60;82.00;;;;;;5010756;28;20913;-66
2022/03/31 09:17:59;;;;;;;2.57;1.80;;;7.60;81.30;;;;;;5009877;28;20420;-66
2022/03/31 09:20:40;;;;;;;5.37;2.50;;;7.50;81.90;;;;;;5010078;28;20196;-67
2022/03/31 09:23:13;;;;;;;2.37;1.83;;;7.40;81.50;;;;;;5010905;28;20407;-67
2022/03/31 09:25:41;;;;;;;3.57;2.63;;;7.20;82.30;;;;;;5010739;28;20415;-67
2022/03/31 09:28:15;;;;;;;2.50;2.30;;;7.10;82.20;;;;;;5011208;28;20775;-67
2022/03/31 09:30:53;;;;;;;2.63;2.43;;;7.20;82.90;;;;;;5011173;28;20407;-66
2022/03/31 09:33:53;;;;;;;2.33;1.83;;;7.30;82.40;;;;;;5012843;23;20962;-70
2022/03/31 09:36:21;;;;;;;3.70;1.60;;;7.40;82.80;;;;;;4980614;28;20432;-70
2022/03/31 09:39:02;;;;;;;1.70;1.60;;;7.20;83.40;;;;;;4991747;28;20886;-71
2022/03/31 09:41:33;;;;;;;1.63;1.53;;;7.00;83.80;;;;;;4994533;28;20542;-70
2022/03/31 09:44:05;;;;;;;3.00;1.67;;;7.00;83.90;;;;;;4995565;28;20870;-70
2022/03/31 09:46:36;;;;;;;2.10;2.00;;;7.20;84.00;;;;;;4994967;28;20432;-70
2022/03/31 09:49:20;;;;;;;3.20;2.20;;;7.20;83.90;;;;;;4990237;28;21051;-71
2022/03/31 09:51:51;;;;;;;3.20;2.10;;;6.60;85.10;;;;;;4983181;28;20786;-72
2022/03/31 09:54:18;;;;;;;3.87;2.13;;;6.50;85.80;;;;;;4994731;28;20420;-71
2022/03/31 09:56:43;;;;;;;2.73;2.00;;;6.50;87.00;;;;;;4993756;28;20408;-71
2022/03/31 09:59:12;;;;;;;3.63;3.17;;;6.40;86.90;;;;;;4989018;28;20427;-72
2022/03/31 10:01:39;;;;;;;2.27;1.83;;;6.40;87.70;;;;;;4994376;28;20259;-72
2022/03/31 10:04:09;;;;;;;5.57;2.23;;;6.40;87.80;;;;;;4993930;28;20439;-72
2022/03/31 10:06:37;;;;;;;5.20;2.53;;;6.10;88.20;;;;;;4994299;28;20926;-72
2022/03/31 10:09:04;;;;;;;4.50;2.90;;;6.10;88.10;;;;;;4994053;28;20404;-71
2022/03/31 10:11:36;;;;;;;2.40;2.20;;;6.40;88.40;;;;;;4993924;28;20486;-69
2022/03/31 10:14:24;;;;;;;3.80;2.87;;;6.40;87.20;;;;;;4993899;28;20444;-71
2022/03/31 10:16:54;;;;;;;2.33;2.03;;;6.30;87.80;;;;;;4992466;28;20424;-70
2022/03/31 10:19:28;;;;;;;3.77;2.43;;;6.10;88.10;;;;;;4993897;28;20408;-71
2022/03/31 10:21:59;;;;;;;6.00;2.50;;;6.30;88.10;;;;;;4992365;28;20439;-71
2022/03/31 10:24:44;;;;;;;4.63;2.50;;;6.50;88.30;;;;;;4993417;28;20739;-72
2022/03/31 10:27:29;;;;;;;2.50;2.10;;;6.30;88.20;;;;;;4994183;28;20407;-72
2022/03/31 10:30:11;;;;;;;2.70;2.50;;;6.50;88.30;;;;;;4994148;28;20957;-72
2022/03/31 10:32:37;;;;;;;4.10;2.10;;;6.60;88.10;;;;;;4994093;28;20965;-72
2022/03/31 10:35:03;;;;;;;2.50;2.40;;;6.60;87.50;;;;;;4994626;28;20420;-72
2022/03/31 10:37:34;;;;;;;2.50;2.30;;;6.60;87.70;;;;;;4995457;28;20422;-72
2022/03/31 10:40:00;;;;;;;2.50;2.20;;;6.70;87.90;;;;;;4994607;28;21015;-72
2022/03/31 10:42:25;;;;;;;3.00;2.30;;;6.60;88.40;;;;;;4994105;28;20439;-72
2022/03/31 10:45:12;;;;;;;2.97;2.23;;;6.60;87.50;;;;;;4993521;28;20509;-72
2022/03/31 10:47:40;;;;;;;4.40;2.27;;;6.70;87.80;;;;;;4985097;28;20248;-70
2022/03/31 10:50:07;;;;;;;3.03;2.30;;;6.90;87.80;;;;;;4974544;28;20409;-73
2022/03/31 10:52:33;;;;;;;5.00;2.97;;;7.10;86.50;;;;;;4976211;28;20445;-73
2022/03/31 10:55:19;;;;;;;2.60;2.40;;;7.10;86.90;;;;;;4974398;28;20459;-71
2022/03/31 10:57:45;;;;;;;2.50;2.30;;;7.20;85.90;;;;;;4984261;28;20722;-72
2022/03/31 11:00:14;;;;;;;2.60;2.40;;;7.30;85.80;;;;;;4993363;28;20448;-71
2022/03/31 11:02:45;;;;;;;4.07;3.17;;;7.60;85.00;;;;;;4993893;28;20420;-73
2022/03/31 11:05:12;;;;;;;5.17;3.10;;;7.30;85.40;;;;;;4991646;28;20408;-71
2022/03/31 11:07:38;;;;;;;3.80;3.00;;;7.40;84.90;;;;;;4993447;28;20531;-73
2022/03/31 11:10:09;;;;;;;6.60;2.70;;;7.70;84.10;;;;;;4993496;28;20408;-74
2022/03/31 11:12:36;;;;;;;2.60;2.37;;;7.70;83.20;;;;;;4993274;28;20524;-73
2022/03/31 11:15:15;;;;;;;2.80;2.60;;;7.50;83.70;;;;;;4993455;28;20816;-72
2022/03/31 11:17:42;;;;;;;2.33;2.13;;;7.60;83.60;;;;;;4993397;28;20436;-71
2022/03/31 11:20:18;;;;;;;4.07;2.33;;;7.40;83.90;;;;;;4993341;28;20447;-71
2022/03/31 11:22:54;;;;;;;3.03;2.73;;;7.70;84.00;;;;;;4993263;28;20516;-71
2022/03/31 11:25:20;;;;;;;3.13;1.90;;;7.80;83.50;;;;;;4994711;28;20420;-73
2022/03/31 11:27:49;;;;;;;2.70;2.50;;;7.80;82.80;;;;;;4993780;28;20499;-73
2022/03/31 11:30:18;;;;;;;3.13;2.30;;;7.90;82.60;;;;;;4993419;28;20454;-73
2022/03/31 11:32:44;;;;;;;3.03;2.00;;;7.70;82.50;;;;;;4993194;28;20459;-72
2022/03/31 11:35:18;;;;;;;4.27;2.80;;;7.40;81.90;;;;;;4993501;28;20427;-71
2022/03/31 11:37:48;;;;;;;3.37;2.50;;;7.50;82.50;;;;;;4993207;28;20414;-70
2022/03/31 11:40:25;;;;;;;3.57;2.90;;;7.40;82.30;;;;;;4993082;28;20557;-71
2022/03/31 11:42:52;;;;;;;6.13;2.37;;;7.40;82.20;;;;;;4993579;28;20423;-72
2022/03/31 11:45:27;;;;;;;2.20;2.10;;;7.50;82.80;;;;;;4997780;28;20408;-74
2022/03/31 11:48:16;;;;;;;2.50;2.30;;;7.70;81.80;;;;;;4994355;28;20848;-72
2022/03/31 11:50:54;;;;;;;3.93;2.27;;;7.80;81.50;;;;;;4996750;28;20408;-74
2022/03/31 11:53:24;;;;;;;3.50;2.70;;;7.50;82.10;;;;;;4997496;28;20487;-73
2022/03/31 11:55:59;;;;;;;2.37;2.17;;;7.50;83.60;;;;;;4991240;28;20432;-72
2022/03/31 11:58:24;;;;;;;6.17;2.80;;;7.50;82.80;;;;;;4992571;28;20531;-73
2022/03/31 12:00:50;;;;;;;2.10;1.97;;;7.60;83.10;;;;;;4994748;28;20451;-74
2022/03/31 12:03:17;;;;;;;4.73;2.33;;;7.80;82.70;;;;;;4997027;28;20199;-72
2022/03/31 12:05:53;;;;;;;4.60;2.40;;;7.70;82.60;;;;;;4992337;28;20416;-72
2022/03/31 12:08:19;;;;;;;2.30;1.90;;;8.00;82.70;;;;;;4989509;28;20435;-72
2022/03/31 12:10:47;;;;;;;2.13;2.00;;;8.00;82.70;;;;;;4985399;28;20421;-72
2022/03/31 12:13:13;;;;;;;1.70;1.60;;;7.90;82.30;;;;;;4975997;28;20217;-72
2022/03/31 12:15:38;;;;;;;2.03;1.83;;;7.50;82.50;;;;;;4992825;28;20941;-72
2022/03/31 12:18:07;;;;;;;2.03;1.80;;;7.60;83.00;;;;;;4992676;28;20214;-71
2022/03/31 12:20:35;;;;;;;3.90;2.87;;;7.50;83.30;;;;;;4992692;28;20200;-72
2022/03/31 12:23:01;;;;;;;2.33;2.13;;;7.70;83.10;;;;;;4992363;28;20984;-71
2022/03/31 12:25:28;;;;;;;2.30;2.17;;;7.60;81.90;;;;;;4990892;28;20404;-71
2022/03/31 12:27:58;;;;;;;1.77;1.67;;;7.30;82.30;;;;;;4976872;28;20429;-73
2022/03/31 12:30:23;;;;;;;7.30;2.70;;;7.50;82.80;;;;;;4980345;28;20536;-72
2022/03/31 12:32:49;;;;;;;2.90;2.23;;;7.80;84.10;;;;;;4989201;28;20821;-72
2022/03/31 12:35:15;;;;;;;3.17;2.30;;;8.00;82.10;;;;;;4977638;28;20173;-73
2022/03/31 12:37:45;;;;;;;6.03;2.20;;;8.00;81.00;;;;;;4973040;28;20192;-72
2022/03/31 12:40:13;;;;;;;4.67;2.40;;;7.90;81.40;;;;;;4982319;28;20444;-73
2022/03/31 12:42:50;;;;;;;5.10;1.97;;;7.70;81.80;;;;;;4976766;28;20547;-72
2022/03/31 12:45:16;;;;;;;5.57;2.57;;;7.80;81.30;;;;;;4975665;28;20432;-71
2022/03/31 12:47:43;;;;;;;3.30;2.17;;;7.70;81.10;;;;;;4991977;28;20404;-71
2022/03/31 12:50:20;;;;;;;2.00;1.90;;;7.80;80.70;;;;;;4992062;28;20216;-72
2022/03/31 12:52:53;;;;;;;3.10;2.40;;;8.00;80.40;;;;;;4991426;28;20436;-72
2022/03/31 12:55:33;;;;;;;4.63;2.27;;;8.10;79.40;;;;;;4992263;28;20408;-72
2022/03/31 12:58:00;;;;;;;3.33;3.03;;;8.00;78.40;;;;;;4991763;28;20906;-71
2022/03/31 13:00:26;;;;;;;2.80;2.23;;;7.90;79.40;;;;;;4986162;28;20479;-71
2022/03/31 13:02:52;;;;;;;4.20;2.37;;;8.10;79.00;;;;;;4972676;28;20955;-72
2022/03/31 13:05:24;;;;;;;3.37;2.67;;;8.40;77.30;;;;;;4983054;28;20499;-71